AirNav   Everest Fuels
 
 1170 users online  

60PA Pottstown Hospital Heliport
Pottstown, Pennsylvania, USA

GOING TO POTTSTOWN?


FAA INFORMATION EFFECTIVE 05 DECEMBER 2019

Location

FAA Identifier: 60PA
Lat/Long: 40-14-36.6500N 075-36-40.4400W
40-14.610833N 075-36.674000W
40.2435139,-75.6112333
(estimated)
Elevation: 168 ft. / 51 m (estimated)
Variation: 12W (1995)
Time zone: UTC -5 (UTC -4 during Daylight Saving Time)
Zip code: 19464

Heliport Operations

Heliport use: Private use, MEDICAL USE HELIPORT.
Activation date: 07/1996
Control tower: no
ARTCC: NEW YORK CENTER
FSS: WILLIAMSPORT FLIGHT SERVICE STATION
Attendance: UNATNDD
Wind indicator: yes
Segmented circle: no
Lights: SS-SR

Heliport Communications

WX ASOS at PTW (2.5 nm E): 119.425 (610-495-0823)
WX AWOS-3T at OQN (15 nm S): 121.4 ((610) 692-6190)
WX AWOS-3 at UKT (16 nm NE): 119.475 (215-538-7610)
WX AWOS-3 at CKZ (17 nm NE): 126.325 (215-257-7291)
WX AWOS-3 at LOM (17 nm E): 118.925 (215-646-1068)
WX ASOS at RDG (18 nm NW): PHONE 610-372-9863
WX AWOS-3 at MQS (20 nm SW): 126.25 (610-384-6132)

Nearby radio navigation aids

VOR radial/distance  VOR name  Freq  Var
PTWr308/2.7POTTSTOWN VORTAC116.5009W
MXEr017/19.7MODENA VORTAC113.2009W
ETXr180/20.5EAST TEXAS VOR/DME110.2009W
FJCr204/29.9ALLENTOWN VORTAC117.5010W
LRPr086/32.0LANCASTER VOR/DME117.3009W
ARDr279/32.2YARDLEY VOR/DME108.2010W
DQOr010/33.9DUPONT VORTAC114.0010W
OODr349/39.1WOODSTOWN VORTAC112.8010W

 
NDB name  Hdg/Dist  Freq  Var  ID
AMBLER307/16.527512WING .. -. --.

Heliport Services

Runway Information

Helipad H1

Dimensions: 65 x 65 ft. / 20 x 20 m
Surface: concrete
Runway edge lights: PERI
Latitude: 40-14.610833N
Longitude: 075-36.674000W
Elevation: 168.0 ft.
Traffic pattern: leftleft

Heliport Ownership and Management from official FAA records

Ownership: Privately-owned
Owner: POTTSTOWN HOSPITAL LLC
1600 EAST HIGH STREET
POTTSTOWN, PA 19464
Phone 610-327-7065
Manager: RAYMOND GOSTKOWSKI
1600 EAST HIGH STREET
POTTSTOWN, PA 19464
Phone 610-327-7065

Heliport Operational Statistics

Aircraft based on the field: 1
Helicopters: 1
    

Additional Remarks

E111-1 EASTERLY OPS ARE R OF WIRES ON E POLE MKD & N OPS ARE NOT RCMD UNLESS POLES; WIRES & TREES REMOVED; SLP CUT TO GRADE; UTILITY POLE N REMOVED; AND A WDI ERECTED AT OR NEAR GND LVL RATHER THAN AT ROOFTOP.
FOR CD CTC PHILADELPHIA APCH AT 800-354-9884.

Instrument Procedures

There are no published instrument procedures at 60PA.

Some nearby airports with instrument procedures:

KPTW - Heritage Field Airport (3 nm E)
N47 - Pottstown Municipal Airport (3 nm W)
N10 - Perkiomen Valley Airport (9 nm E)
KOQN - Brandywine Regional Airport (15 nm S)
KUKT - Quakertown Airport (16 nm NE)
KCKZ - Pennridge Airport (17 nm NE)
KLOM - Wings Field Airport (17 nm E)
KRDG - Reading Regional Airport/Carl A Spaatz Field (18 nm NW)
KMQS - Chester County G O Carlson Airport (20 nm SW)
 
Loc | Ops | Rwys | IFR | FBO | Links
Com | Nav | Svcs | Stats | Notes
Area around 60PA (Pottstown Hospital Heliport)
 
Road maps at: MapQuest Bing Google
 
Aerial photo
No photo
 
Sectional chart

 
Airport distance calculator
Flying to Pottstown Hospital Heliport? Find the distance to fly.

From to 60PA

Sunrise and sunset
Times for 07-Dec-2019
 Local
(UTC-5)
 Zulu
(UTC)
Morning civil twilight06:4211:42
Sunrise07:1312:13
Sunset16:3521:35
Evening civil twilight17:0622:06

Current date and time
Zulu (UTC)  08-Dec-2019 02:30:54
Local (UTC-5)  07-Dec-2019 21:30:54
 
METAR
KPTW 
3nm E 
080154Z AUTO 00000KT 10SM CLR M06/M09 A3048 RMK AO2 SLP321 T10561089
KOQN 
15nm S 
080215Z AUTO 00000KT 10SM CLR M02/M06 A3047 RMK AO2
KUKT 
16nm NE 
080215Z AUTO 00000KT 10SM CLR M05/M07 A3046 RMK A01
KCKZ 
17nm NE 
080215Z AUTO 00000KT 10SM CLR M04/M08 A3047 RMK AO2
KLOM 
17nm E 
080215Z AUTO 00000KT 10SM CLR M02/M08 A3047 RMK AO2 T10161083
KRDG 
18nm NW 
080154Z 00000KT 10SM CLR M03/M08 A3045 RMK AO2 SLP321 T10281078
KMQS 
20nm SW 
080215Z AUTO 36003KT 10SM CLR M01/M08 A3046 RMK AO2
TAF
KRDG 
18nm NW 
071720Z 0718/0818 31008KT P6SM SCT250 FM072300 VRB02KT P6SM FEW250 FM081600 17006KT P6SM SCT250
NOTAMs
Click for the latest NOTAMs
NOTAMs are issued by the DoD/FAA and will open in a separate window not controlled by AirNav.

 

 
 

Would you like to see your business listed on this page?

 If your business provides an interesting product or service to pilots, flight crews, aircraft, or users of the Pottstown Hospital Heliport, you should consider listing it here.  To start the listing process, click on the button below
 
Add a business
 

Other Pages about Pottstown Hospital Heliport

Update a link
 
Copyright © AirNav, LLC. All rights reserved. Privacy Policy  Contact